EB1TK-13
43.32.22N 005.42.32W
IN73DM aprs.fi
zuletzt gehoert:
2021-12-07T23:16:12Z
zuerst gehoert:
2020-02-10T14:56:01Z

Wind 227°/012kn
in Böen bis zu 016kn
Temp 9.44C
Regen 0.0mm
letzte 24h 11.9mm
seit Mitternacht 11.9mm
Baro 1011.4h
Feuchte 68%

APRS Gijón/Xixón [IN73DM], 0 Stunde(n), EB1TK-13 [00:33:11, 0s].
EB1TK 43.32.22N 005.42.32WIN73DM 0.250km 317°NW23:16:12ZWind 227°/012kn, Böen bis 016kn, Temp 9.44c, Regen 0.0mm, letzte 24h 11.9mm, seit 0h 11.9mm, Baro 1011.4h, Hum: 68%(3EB1TK-13)
LEEL 43.32.98N 005.41.71WIN73DN 1.694km 22°NNE23:30:28ZHelipuerto de El Musel: LEAS 072230Z 27025G36KT 210V290 9999 FEW079 09/03 Q1009 TEMPO 4000 SHRA BKN020TCU=
EA1DZR 43.31.48N 005.40.00WIN73EM 3.183km 112°ESE23:32:22ZMMDVM DVS 434.3500/434.3500 CC1
ED1ZAE 43.27.97N 005.40.54WIN73DL 8.004km 164°SSE23:11:24Z400 M. PICO SAN MARTIN (GIJON) 13.4V,7.5C(3ED1ZAE-3)
2m Voice 145.5875 -0.600 Mhz(2ED1ZAE-C)
ED1ZAS 43.27.52N 005.40.17WIN73DL 8.946km 162°SSE23:32:41ZRD985 438.2250/430.6250 CC1
EB1GEM 43.30.00N 005.36.07WIN73EM 9.117km 116°ESE23:28:18ZWX3in1Plus2.0 U=13.3V,T=??.?C/??.?F(3EB1GEM-3)
EB1CAM 43.31.00N 005.49.32WIN73CM 9.800km 258°WSW23:31:52ZEB1CAM por ahi(3EB1CAM-9)
EA1IPU 43.26.21N 005.46.62WIN73CK 12.468km 209°SSW23:30:36ZMMDVM MMDVM HS Hat 439.8000/439.8000 CC1
LEGM 43.26.15N 005.49.84WIN73CK 15.105km 223°SW23:30:25ZHelipuerto de La Morgal: LEAS 072230Z 27025G36KT 210V290 9999 FEW079 09/03 Q1009 TEMPO 4000 SHRA BKN020TCU=
LEMR 43.25.83N 005.49.60WIN73CK 15.357km 221°SW23:30:28ZAerodromo de la Morgal: LEAS 072230Z 27025G36KT 210V290 9999 FEW079 09/03 Q1009 TEMPO 4000 SHRA BKN020TCU=
EA1ABW 43.24.77N 005.47.77WIN73CJ 15.558km 209°SSW23:31:00ZMMDVM MMDVM HS Hat 439.8250/439.8250 CC1
EA1AHA 43.32.72N 005.54.38WIN73BN 16.408km 274°W23:26:25ZMMDVM MMDVM HS Hat 432.0000/432.0000 CC1
Wind 270°/011kn, Böen bis 014kn, Temp 10.56c, Regen 0.0mm, letzte 24h 176.3mm, seit 0h 176.3mm, Baro 1011.1h, Hum: 59%(2EA1AHA-13)
ED1ZAY 43.29.47N 005.56.54WIN73AL 19.910km 256°WSW23:32:41ZRD625 438.3000/430.7000 CC1
LEHU 43.22.63N 005.49.57WIN73CJ 20.218km 209°SSW23:30:26ZHelipuerto del HUCA: LEAS 072230Z 27025G36KT 210V290 9999 FEW079 09/03 Q1009 TEMPO 4000 SHRA BKN020TCU=
EA1FLQ 43.22.00N 005.36.35WIN73EI 20.347km 157°SSE23:32:18ZMMDVM DVMega 439.9750/439.9750 CC1
ED1ZAU 43.23.04N 005.52.75WIN73BJ 22.042km 220°SW23:32:39ZRD625 438.5000/430.9000 CC1
EA1FHR 43.28.72N 005.26.41WIN73GL 22.119km 107°ESE23:31:46ZMMDVM MMDVM HS Hat 439.1500/439.1500 CC1
33D00 43.21.63N 005.51.13WIN73BI 22.875km 212°SSW22:58:42Z33-D-00 Protección Civil REMER / Delegación del Gobierno en Asturias
EA1JAY 43.21.54N 005.51.34WIN73BI 23.173km 212°SSW23:00:23Z434.525MHz Nodo TETRA DMO(3EA1JAY-4)
EA1HJA 43.21.47N 005.52.09WIN73BI 23.817km 214°SW23:31:52Z IN73FL WX3IN1+ 2.0 - V=13.2V,TX TEMP=22.8C(3EA1HJA-2)
IN73FL WX3IN1+ 2.0 - V=14.0V,TX TEMP=43.9C(2EA1HJA)
EA1L 43.20.37N 005.51.13WIN73BI 24.876km 209°SSW23:30:30Zea1l@ure.es V=13.6V,T=??.?C
Wind 243°/010kn, Böen bis 012kn, Temp 10.56c, Regen 0.0mm, letzte 24h 0.5mm, seit 0h 0.5mm, Baro 1007.4h, Hum: 0%(2EA1L-13)
EA1HWX 43.19.29N 005.50.96WIN73BH 26.566km 206°SSW23:31:11ZDMO - UHF 439.7250/431.0000 CC11
EA1IMW 43.14.36N 005.46.93WIN73CF 33.543km 191°S23:31:53ZGRUPO RADIO GALENA (GRG) 430.4500/430.4500 CC1
EA1JBE 43.30.90N 005.16.15WIN73IM 35.062km 94°E23:28:46ZMAIN QTH http://qrz.com/db/ea1jbe(3EA1JBE-1)
MAIN QTH http://qrz.com/db/ea1jbe(2EA1JBE-13)
EB1DGC 43.12.60N 005.45.59WIN73CF 36.482km 187°S23:31:11ZMMDVM MMDVM HS Hat 433.4500/433.4500 CC1
EA1JBL 43.12.28N 005.47.42WIN73CE 37.437km 191°S23:30:58ZMMDVM DVMega 435.3000/435.3000 CC1
EA1HWA 43.12.00N 005.47.40WIN73CE 37.958km 191°S23:01:47ZMMDVM MMDVM HS Hat 433.4500/433.4500 CC1
EB1IOW 43.28.73N 005.13.75WIN73JL 38.737km 99°E23:30:41ZMMDVM MMDVM HS Hat 430.5000/430.5000 CC1
EC1KV 43.34.01N 006.16.01WIN63UN 45.549km 275°W23:11:20ZALBUERNE(3EC1KV-1)

aprs.pl 5.0.011w DL3EL © 2006-2021 [1194995]